Terminal Aerodrome Forecast
Issued by NWS Charleston, WV

Current Version | Previous Version | Graphics & Text | Print | Product List | Glossary On
Versions: 1 2 3 4 5 6 7 8 9 10 11 12 13 14 15 16 17 18 19 20 21 22 23
000
FTUS41 KRLX 091740
TAFCRW
TAF
KCRW 091740Z 0918/1018 24008KT P6SM FEW130 SCT200
     FM092100 24008KT P6SM OVC060
     FM092300 25009KT P6SM OVC025
      TEMPO 0923/1003 2SM -SHSN OVC015
     FM100300 26010KT 6SM -SHSN OVC020
     FM100600 26010KT P6SM OVC020
     FM101600 24011G17KT P6SM BKN070=

USA.gov is the U.S. government's official web portal to all federal, state and local government web resources and services.